sensor_id;sensor_type;location;lat;lon;timestamp;P1;durP1;ratioP1;P2;durP2;ratioP2
35693;SDS011;21812;55.536;37.664;2023-09-18T02:50:18;11.10;;;7.20;;
35693;SDS011;21812;55.536;37.664;2023-09-18T02:52:44;10.45;;;6.78;;
35693;SDS011;21812;55.536;37.664;2023-09-18T02:55:09;14.80;;;8.55;;
35693;SDS011;21812;55.536;37.664;2023-09-18T02:57:35;11.20;;;7.15;;
35693;SDS011;21812;55.536;37.664;2023-09-18T03:00:01;12.38;;;8.40;;
35693;SDS011;21812;55.536;37.664;2023-09-18T03:02:29;10.57;;;7.35;;
35693;SDS011;21812;55.536;37.664;2023-09-18T03:04:56;10.82;;;6.53;;
35693;SDS011;21812;55.536;37.664;2023-09-18T03:07:21;9.27;;;5.90;;
35693;SDS011;21812;55.536;37.664;2023-09-18T03:09:48;8.20;;;5.60;;
35693;SDS011;21812;55.536;37.664;2023-09-18T03:12:13;10.60;;;5.78;;
35693;SDS011;21812;55.536;37.664;2023-09-18T03:14:39;8.20;;;6.03;;
35693;SDS011;21812;55.536;37.664;2023-09-18T03:17:05;10.30;;;5.88;;
35693;SDS011;21812;55.536;37.664;2023-09-18T03:19:31;8.48;;;6.00;;
35693;SDS011;21812;55.536;37.664;2023-09-18T03:21:57;7.50;;;5.93;;
35693;SDS011;21812;55.536;37.664;2023-09-18T03:24:23;12.60;;;6.50;;
35693;SDS011;21812;55.536;37.664;2023-09-18T03:26:48;14.32;;;7.35;;
35693;SDS011;21812;55.536;37.664;2023-09-18T03:29:14;7.70;;;5.13;;
35693;SDS011;21812;55.536;37.664;2023-09-18T03:31:40;21.77;;;9.85;;
35693;SDS011;21812;55.536;37.664;2023-09-18T03:34:06;17.48;;;7.60;;
35693;SDS011;21812;55.536;37.664;2023-09-18T03:36:32;16.58;;;9.20;;
35693;SDS011;21812;55.536;37.664;2023-09-18T03:38:58;9.75;;;6.32;;
35693;SDS011;21812;55.536;37.664;2023-09-18T03:41:24;12.30;;;6.25;;
35693;SDS011;21812;55.536;37.664;2023-09-18T03:43:50;12.80;;;6.15;;
35693;SDS011;21812;55.536;37.664;2023-09-18T03:46:15;8.82;;;6.30;;
35693;SDS011;21812;55.536;37.664;2023-09-18T03:48:47;18.02;;;9.63;;
35693;SDS011;21812;55.536;37.664;2023-09-18T03:51:13;15.02;;;11.52;;
35693;SDS011;21812;55.536;37.664;2023-09-18T03:53:41;12.88;;;9.82;;
35693;SDS011;21812;55.536;37.664;2023-09-18T03:56:07;25.90;;;21.08;;
35693;SDS011;21812;55.536;37.664;2023-09-18T03:58:32;23.52;;;17.00;;
35693;SDS011;21812;55.536;37.664;2023-09-18T04:00:58;27.10;;;21.30;;
35693;SDS011;21812;55.536;37.664;2023-09-18T04:03:23;16.17;;;11.68;;
35693;SDS011;21812;55.536;37.664;2023-09-18T04:05:49;28.48;;;18.38;;
35693;SDS011;21812;55.536;37.664;2023-09-18T04:08:14;19.40;;;12.88;;
35693;SDS011;21812;55.536;37.664;2023-09-18T04:10:40;12.88;;;7.95;;
35693;SDS011;21812;55.536;37.664;2023-09-18T04:13:06;19.70;;;14.05;;
35693;SDS011;21812;55.536;37.664;2023-09-18T04:15:31;14.68;;;8.30;;
35693;SDS011;21812;55.536;37.664;2023-09-18T04:17:57;10.10;;;8.32;;
35693;SDS011;21812;55.536;37.664;2023-09-18T04:20:22;15.57;;;10.52;;
35693;SDS011;21812;55.536;37.664;2023-09-18T04:23:16;12.48;;;8.13;;
35693;SDS011;21812;55.536;37.664;2023-09-18T04:25:51;66.32;;;20.67;;
35693;SDS011;21812;55.536;37.664;2023-09-18T04:28:19;113.60;;;34.40;;
35693;SDS011;21812;55.536;37.664;2023-09-18T04:30:46;16.50;;;9.55;;
35693;SDS011;21812;55.536;37.664;2023-09-18T04:33:13;17.85;;;8.10;;
35693;SDS011;21812;55.536;37.664;2023-09-18T04:35:40;19.58;;;10.68;;
35693;SDS011;21812;55.536;37.664;2023-09-18T04:38:07;39.28;;;13.45;;
35693;SDS011;21812;55.536;37.664;2023-09-18T04:40:37;18.30;;;9.85;;
35693;SDS011;21812;55.536;37.664;2023-09-18T04:43:02;8.73;;;6.10;;
35693;SDS011;21812;55.536;37.664;2023-09-18T04:45:32;25.25;;;9.80;;
35693;SDS011;21812;55.536;37.664;2023-09-18T04:47:58;8.48;;;7.03;;
35693;SDS011;21812;55.536;37.664;2023-09-18T04:50:23;13.40;;;8.95;;
35693;SDS011;21812;55.536;37.664;2023-09-18T04:52:52;9.63;;;5.82;;
35693;SDS011;21812;55.536;37.664;2023-09-18T04:55:19;11.63;;;7.57;;
35693;SDS011;21812;55.536;37.664;2023-09-18T04:57:45;20.33;;;8.38;;
35693;SDS011;21812;55.536;37.664;2023-09-18T05:00:11;11.25;;;6.60;;
35693;SDS011;21812;55.536;37.664;2023-09-18T05:02:39;11.95;;;7.60;;
35693;SDS011;21812;55.536;37.664;2023-09-18T05:05:05;18.38;;;7.60;;
35693;SDS011;21812;55.536;37.664;2023-09-18T05:07:34;6.72;;;5.47;;
35693;SDS011;21812;55.536;37.664;2023-09-18T05:10:00;29.75;;;10.05;;
35693;SDS011;21812;55.536;37.664;2023-09-18T05:12:25;12.43;;;5.40;;
35693;SDS011;21812;55.536;37.664;2023-09-18T05:14:51;12.43;;;5.40;;
35693;SDS011;21812;55.536;37.664;2023-09-18T05:17:17;7.90;;;5.10;;
35693;SDS011;21812;55.536;37.664;2023-09-18T05:19:43;6.88;;;5.32;;
35693;SDS011;21812;55.536;37.664;2023-09-18T05:22:09;7.00;;;5.38;;
35693;SDS011;21812;55.536;37.664;2023-09-18T05:24:37;7.22;;;5.50;;
35693;SDS011;21812;55.536;37.664;2023-09-18T05:27:05;8.95;;;4.88;;
35693;SDS011;21812;55.536;37.664;2023-09-18T05:29:34;7.30;;;5.25;;
35693;SDS011;21812;55.536;37.664;2023-09-18T05:32:03;10.05;;;5.65;;
35693;SDS011;21812;55.536;37.664;2023-09-18T05:34:29;9.82;;;5.90;;
35693;SDS011;21812;55.536;37.664;2023-09-18T05:36:54;6.93;;;5.25;;
35693;SDS011;21812;55.536;37.664;2023-09-18T05:39:20;10.30;;;5.70;;
35693;SDS011;21812;55.536;37.664;2023-09-18T05:41:46;10.40;;;5.55;;
35693;SDS011;21812;55.536;37.664;2023-09-18T05:44:11;9.23;;;5.90;;
35693;SDS011;21812;55.536;37.664;2023-09-18T05:46:37;8.77;;;5.63;;
35693;SDS011;21812;55.536;37.664;2023-09-18T05:49:03;9.70;;;5.65;;
35693;SDS011;21812;55.536;37.664;2023-09-18T05:51:29;12.32;;;6.97;;
35693;SDS011;21812;55.536;37.664;2023-09-18T05:53:56;6.60;;;5.90;;
35693;SDS011;21812;55.536;37.664;2023-09-18T05:56:21;8.23;;;5.90;;
35693;SDS011;21812;55.536;37.664;2023-09-18T05:58:49;8.20;;;5.13;;
35693;SDS011;21812;55.536;37.664;2023-09-18T06:01:14;7.78;;;5.78;;
35693;SDS011;21812;55.536;37.664;2023-09-18T06:03:40;6.10;;;5.18;;
35693;SDS011;21812;55.536;37.664;2023-09-18T06:06:06;12.73;;;6.05;;
35693;SDS011;21812;55.536;37.664;2023-09-18T06:08:31;10.43;;;6.35;;
35693;SDS011;21812;55.536;37.664;2023-09-18T06:10:58;11.95;;;6.85;;
35693;SDS011;21812;55.536;37.664;2023-09-18T06:13:24;8.13;;;5.50;;
35693;SDS011;21812;55.536;37.664;2023-09-18T06:15:51;10.25;;;5.97;;
35693;SDS011;21812;55.536;37.664;2023-09-18T06:18:21;9.13;;;6.13;;
35693;SDS011;21812;55.536;37.664;2023-09-18T06:20:47;8.60;;;6.30;;
35693;SDS011;21812;55.536;37.664;2023-09-18T06:23:13;13.15;;;6.30;;
35693;SDS011;21812;55.536;37.664;2023-09-18T06:25:39;10.02;;;6.70;;
35693;SDS011;21812;55.536;37.664;2023-09-18T06:28:05;9.98;;;6.43;;
35693;SDS011;21812;55.536;37.664;2023-09-18T06:30:31;10.13;;;6.35;;
35693;SDS011;21812;55.536;37.664;2023-09-18T06:32:58;11.18;;;6.03;;
35693;SDS011;21812;55.536;37.664;2023-09-18T06:35:24;8.30;;;5.72;;
35693;SDS011;21812;55.536;37.664;2023-09-18T06:37:50;9.90;;;6.07;;
35693;SDS011;21812;55.536;37.664;2023-09-18T06:40:16;8.52;;;6.43;;
35693;SDS011;21812;55.536;37.664;2023-09-18T06:42:41;9.80;;;5.82;;
35693;SDS011;21812;55.536;37.664;2023-09-18T06:45:10;10.38;;;6.03;;
35693;SDS011;21812;55.536;37.664;2023-09-18T06:47:36;9.52;;;5.88;;
35693;SDS011;21812;55.536;37.664;2023-09-18T06:50:02;10.75;;;6.05;;
35693;SDS011;21812;55.536;37.664;2023-09-18T06:52:30;8.10;;;5.75;;
35693;SDS011;21812;55.536;37.664;2023-09-18T06:54:55;8.90;;;5.60;;
35693;SDS011;21812;55.536;37.664;2023-09-18T06:57:23;13.43;;;5.82;;
35693;SDS011;21812;55.536;37.664;2023-09-18T06:59:49;10.60;;;6.28;;
35693;SDS011;21812;55.536;37.664;2023-09-18T07:02:14;8.18;;;6.10;;
35693;SDS011;21812;55.536;37.664;2023-09-18T07:04:40;12.23;;;6.32;;
35693;SDS011;21812;55.536;37.664;2023-09-18T07:07:13;7.40;;;6.03;;
35693;SDS011;21812;55.536;37.664;2023-09-18T07:09:39;12.40;;;5.80;;
35693;SDS011;21812;55.536;37.664;2023-09-18T07:12:07;8.77;;;5.82;;
35693;SDS011;21812;55.536;37.664;2023-09-18T07:14:35;13.93;;;6.15;;
35693;SDS011;21812;55.536;37.664;2023-09-18T07:17:01;10.25;;;6.05;;
35693;SDS011;21812;55.536;37.664;2023-09-18T07:19:27;14.18;;;5.97;;
35693;SDS011;21812;55.536;37.664;2023-09-18T07:21:53;10.20;;;5.78;;
35693;SDS011;21812;55.536;37.664;2023-09-18T07:24:19;10.57;;;5.78;;
35693;SDS011;21812;55.536;37.664;2023-09-18T07:26:46;9.10;;;5.03;;
35693;SDS011;21812;55.536;37.664;2023-09-18T07:29:15;12.30;;;6.10;;
35693;SDS011;21812;55.536;37.664;2023-09-18T07:31:44;8.75;;;6.15;;
35693;SDS011;21812;55.536;37.664;2023-09-18T07:34:12;9.88;;;7.18;;
35693;SDS011;21812;55.536;37.664;2023-09-18T07:36:39;8.80;;;6.82;;
35693;SDS011;21812;55.536;37.664;2023-09-18T07:39:05;7.13;;;5.82;;
35693;SDS011;21812;55.536;37.664;2023-09-18T07:41:33;9.00;;;6.03;;
35693;SDS011;21812;55.536;37.664;2023-09-18T07:43:59;10.30;;;5.55;;
35693;SDS011;21812;55.536;37.664;2023-09-18T07:46:25;9.95;;;5.85;;
35693;SDS011;21812;55.536;37.664;2023-09-18T07:48:51;8.93;;;6.18;;
35693;SDS011;21812;55.536;37.664;2023-09-18T07:51:16;8.55;;;5.88;;
35693;SDS011;21812;55.536;37.664;2023-09-18T07:53:42;10.50;;;6.15;;
35693;SDS011;21812;55.536;37.664;2023-09-18T07:56:08;8.82;;;6.00;;
35693;SDS011;21812;55.536;37.664;2023-09-18T07:58:34;7.18;;;5.40;;
35693;SDS011;21812;55.536;37.664;2023-09-18T08:01:03;7.13;;;5.45;;
35693;SDS011;21812;55.536;37.664;2023-09-18T08:03:35;14.25;;;6.72;;
35693;SDS011;21812;55.536;37.664;2023-09-18T08:06:01;13.63;;;6.03;;
35693;SDS011;21812;55.536;37.664;2023-09-18T08:08:26;13.57;;;6.72;;
35693;SDS011;21812;55.536;37.664;2023-09-18T08:10:52;11.00;;;6.68;;
35693;SDS011;21812;55.536;37.664;2023-09-18T08:13:18;9.98;;;5.88;;
35693;SDS011;21812;55.536;37.664;2023-09-18T08:15:49;9.15;;;6.25;;
35693;SDS011;21812;55.536;37.664;2023-09-18T08:18:16;10.85;;;6.25;;
35693;SDS011;21812;55.536;37.664;2023-09-18T08:20:42;10.50;;;5.72;;
35693;SDS011;21812;55.536;37.664;2023-09-18T08:23:08;9.48;;;5.55;;
35693;SDS011;21812;55.536;37.664;2023-09-18T08:25:34;13.18;;;6.75;;
35693;SDS011;21812;55.536;37.664;2023-09-18T08:28:00;8.55;;;5.93;;
35693;SDS011;21812;55.536;37.664;2023-09-18T08:30:27;7.50;;;5.82;;
35693;SDS011;21812;55.536;37.664;2023-09-18T08:32:52;7.28;;;5.53;;
35693;SDS011;21812;55.536;37.664;2023-09-18T08:35:18;7.45;;;5.50;;
35693;SDS011;21812;55.536;37.664;2023-09-18T08:37:43;10.90;;;5.40;;
35693;SDS011;21812;55.536;37.664;2023-09-18T08:40:10;20.75;;;8.45;;
35693;SDS011;21812;55.536;37.664;2023-09-18T08:42:38;8.50;;;6.75;;
35693;SDS011;21812;55.536;37.664;2023-09-18T08:45:35;8.55;;;6.20;;
35693;SDS011;21812;55.536;37.664;2023-09-18T08:48:05;9.95;;;6.68;;
35693;SDS011;21812;55.536;37.664;2023-09-18T08:50:31;8.93;;;5.78;;
35693;SDS011;21812;55.536;37.664;2023-09-18T08:52:58;14.60;;;6.88;;
35693;SDS011;21812;55.536;37.664;2023-09-18T08:55:24;9.30;;;6.30;;
35693;SDS011;21812;55.536;37.664;2023-09-18T08:57:50;10.60;;;6.20;;
35693;SDS011;21812;55.536;37.664;2023-09-18T09:00:18;13.15;;;6.45;;
35693;SDS011;21812;55.536;37.664;2023-09-18T09:02:44;10.38;;;6.13;;
35693;SDS011;21812;55.536;37.664;2023-09-18T09:05:10;8.25;;;5.75;;
35693;SDS011;21812;55.536;37.664;2023-09-18T09:07:36;7.43;;;6.07;;
35693;SDS011;21812;55.536;37.664;2023-09-18T09:10:02;9.02;;;6.03;;
35693;SDS011;21812;55.536;37.664;2023-09-18T09:12:48;9.13;;;6.30;;
35693;SDS011;21812;55.536;37.664;2023-09-18T09:15:14;12.77;;;6.60;;
35693;SDS011;21812;55.536;37.664;2023-09-18T09:17:40;9.13;;;6.32;;
35693;SDS011;21812;55.536;37.664;2023-09-18T09:20:11;8.98;;;5.78;;
35693;SDS011;21812;55.536;37.664;2023-09-18T09:22:38;9.80;;;6.50;;
35693;SDS011;21812;55.536;37.664;2023-09-18T09:25:21;8.15;;;5.88;;
35693;SDS011;21812;55.536;37.664;2023-09-18T09:27:49;7.95;;;6.32;;
35693;SDS011;21812;55.536;37.664;2023-09-18T09:30:18;10.18;;;7.07;;
35693;SDS011;21812;55.536;37.664;2023-09-18T09:32:52;11.63;;;7.40;;
35693;SDS011;21812;55.536;37.664;2023-09-18T09:35:22;11.80;;;6.20;;
35693;SDS011;21812;55.536;37.664;2023-09-18T09:37:52;7.88;;;5.40;;
35693;SDS011;21812;55.536;37.664;2023-09-18T09:40:21;10.07;;;6.00;;
35693;SDS011;21812;55.536;37.664;2023-09-18T09:42:50;10.85;;;8.15;;
35693;SDS011;21812;55.536;37.664;2023-09-18T09:45:19;8.23;;;5.85;;
35693;SDS011;21812;55.536;37.664;2023-09-18T09:47:45;6.32;;;5.68;;
35693;SDS011;21812;55.536;37.664;2023-09-18T09:50:12;8.07;;;5.85;;
35693;SDS011;21812;55.536;37.664;2023-09-18T09:52:45;7.30;;;5.80;;
35693;SDS011;21812;55.536;37.664;2023-09-18T09:55:24;7.30;;;5.60;;
35693;SDS011;21812;55.536;37.664;2023-09-18T09:57:55;8.25;;;5.65;;
35693;SDS011;21812;55.536;37.664;2023-09-18T10:00:29;8.00;;;6.07;;
35693;SDS011;21812;55.536;37.664;2023-09-18T10:03:09;9.32;;;5.95;;
35693;SDS011;21812;55.536;37.664;2023-09-18T10:05:37;8.85;;;5.80;;
35693;SDS011;21812;55.536;37.664;2023-09-18T10:10:32;8.98;;;6.47;;
35693;SDS011;21812;55.536;37.664;2023-09-18T10:13:00;10.15;;;6.60;;
35693;SDS011;21812;55.536;37.664;2023-09-18T10:15:33;10.83;;;7.57;;
35693;SDS011;21812;55.536;37.664;2023-09-18T10:18:04;11.60;;;6.40;;
35693;SDS011;21812;55.536;37.664;2023-09-18T10:20:36;10.35;;;6.38;;
35693;SDS011;21812;55.536;37.664;2023-09-18T10:23:09;8.07;;;6.63;;
35693;SDS011;21812;55.536;37.664;2023-09-18T10:25:49;8.77;;;5.57;;
35693;SDS011;21812;55.536;37.664;2023-09-18T10:28:20;9.73;;;7.15;;
35693;SDS011;21812;55.536;37.664;2023-09-18T10:30:48;8.25;;;5.75;;
35693;SDS011;21812;55.536;37.664;2023-09-18T10:33:16;11.90;;;7.63;;
35693;SDS011;21812;55.536;37.664;2023-09-18T10:35:42;9.30;;;7.55;;
35693;SDS011;21812;55.536;37.664;2023-09-18T10:38:08;16.90;;;7.95;;
35693;SDS011;21812;55.536;37.664;2023-09-18T10:40:35;13.88;;;8.30;;
35693;SDS011;21812;55.536;37.664;2023-09-18T10:43:02;9.65;;;6.57;;
35693;SDS011;21812;55.536;37.664;2023-09-18T10:45:29;10.10;;;6.85;;
35693;SDS011;21812;55.536;37.664;2023-09-18T10:47:56;12.52;;;8.27;;
35693;SDS011;21812;55.536;37.664;2023-09-18T10:50:26;11.70;;;8.00;;
35693;SDS011;21812;55.536;37.664;2023-09-18T10:52:52;11.27;;;7.25;;
35693;SDS011;21812;55.536;37.664;2023-09-18T10:55:18;10.13;;;5.88;;
35693;SDS011;21812;55.536;37.664;2023-09-18T10:57:49;11.10;;;6.40;;
35693;SDS011;21812;55.536;37.664;2023-09-18T11:00:24;10.27;;;6.95;;
35693;SDS011;21812;55.536;37.664;2023-09-18T11:02:52;11.02;;;6.32;;
35693;SDS011;21812;55.536;37.664;2023-09-18T11:05:34;10.85;;;6.80;;
35693;SDS011;21812;55.536;37.664;2023-09-18T11:11:07;10.20;;;5.97;;
35693;SDS011;21812;55.536;37.664;2023-09-18T11:13:41;7.90;;;5.53;;
35693;SDS011;21812;55.536;37.664;2023-09-18T11:18:52;8.77;;;6.65;;
35693;SDS011;21812;55.536;37.664;2023-09-18T11:21:29;8.15;;;6.30;;
35693;SDS011;21812;55.536;37.664;2023-09-18T11:23:59;9.50;;;5.43;;
35693;SDS011;21812;55.536;37.664;2023-09-18T11:26:29;8.63;;;6.07;;
35693;SDS011;21812;55.536;37.664;2023-09-18T11:28:58;7.32;;;5.97;;
35693;SDS011;21812;55.536;37.664;2023-09-18T11:34:25;9.35;;;5.78;;
35693;SDS011;21812;55.536;37.664;2023-09-18T11:36:53;9.02;;;6.10;;
35693;SDS011;21812;55.536;37.664;2023-09-18T11:39:36;9.35;;;5.45;;
35693;SDS011;21812;55.536;37.664;2023-09-18T11:42:10;12.93;;;6.70;;
35693;SDS011;21812;55.536;37.664;2023-09-18T11:44:39;8.57;;;6.45;;
35693;SDS011;21812;55.536;37.664;2023-09-18T11:47:16;10.25;;;6.75;;
35693;SDS011;21812;55.536;37.664;2023-09-18T11:52:22;8.93;;;5.75;;
35693;SDS011;21812;55.536;37.664;2023-09-18T11:54:48;9.75;;;6.22;;
35693;SDS011;21812;55.536;37.664;2023-09-18T11:57:15;9.38;;;5.95;;
35693;SDS011;21812;55.536;37.664;2023-09-18T11:59:41;7.75;;;5.28;;
35693;SDS011;21812;55.536;37.664;2023-09-18T12:02:24;7.47;;;5.22;;
35693;SDS011;21812;55.536;37.664;2023-09-18T12:05:21;6.90;;;5.15;;
35693;SDS011;21812;55.536;37.664;2023-09-18T12:07:46;6.15;;;5.55;;
35693;SDS011;21812;55.536;37.664;2023-09-18T12:10:16;9.32;;;6.50;;
35693;SDS011;21812;55.536;37.664;2023-09-18T12:12:42;7.63;;;5.43;;
35693;SDS011;21812;55.536;37.664;2023-09-18T12:15:12;6.13;;;5.50;;
35693;SDS011;21812;55.536;37.664;2023-09-18T12:17:40;8.60;;;5.20;;
35693;SDS011;21812;55.536;37.664;2023-09-18T12:20:06;7.65;;;4.88;;
35693;SDS011;21812;55.536;37.664;2023-09-18T12:22:32;8.25;;;4.65;;
35693;SDS011;21812;55.536;37.664;2023-09-18T12:25:13;9.38;;;5.47;;
35693;SDS011;21812;55.536;37.664;2023-09-18T12:27:40;7.07;;;4.55;;
35693;SDS011;21812;55.536;37.664;2023-09-18T12:30:06;7.82;;;4.32;;
35693;SDS011;21812;55.536;37.664;2023-09-18T12:32:37;8.55;;;4.97;;
35693;SDS011;21812;55.536;37.664;2023-09-18T12:35:05;6.85;;;4.60;;
35693;SDS011;21812;55.536;37.664;2023-09-18T12:37:32;6.80;;;5.15;;
35693;SDS011;21812;55.536;37.664;2023-09-18T12:39:59;9.52;;;5.10;;
35693;SDS011;21812;55.536;37.664;2023-09-18T12:42:25;7.32;;;4.78;;
35693;SDS011;21812;55.536;37.664;2023-09-18T12:44:51;8.07;;;5.30;;
35693;SDS011;21812;55.536;37.664;2023-09-18T12:47:19;8.13;;;5.53;;
35693;SDS011;21812;55.536;37.664;2023-09-18T12:49:45;6.78;;;5.25;;
35693;SDS011;21812;55.536;37.664;2023-09-18T12:52:12;6.18;;;4.45;;
35693;SDS011;21812;55.536;37.664;2023-09-18T12:54:45;10.25;;;6.00;;
35693;SDS011;21812;55.536;37.664;2023-09-18T12:57:17;14.27;;;6.13;;
35693;SDS011;21812;55.536;37.664;2023-09-18T12:59:43;18.33;;;6.95;;
35693;SDS011;21812;55.536;37.664;2023-09-18T13:02:09;7.38;;;5.20;;
35693;SDS011;21812;55.536;37.664;2023-09-18T13:04:38;6.82;;;5.28;;
35693;SDS011;21812;55.536;37.664;2023-09-18T13:09:40;9.85;;;6.03;;
35693;SDS011;21812;55.536;37.664;2023-09-18T13:12:06;10.90;;;8.35;;
35693;SDS011;21812;55.536;37.664;2023-09-18T13:17:50;10.95;;;6.30;;
35693;SDS011;21812;55.536;37.664;2023-09-18T13:20:20;12.60;;;5.70;;
35693;SDS011;21812;55.536;37.664;2023-09-18T13:22:52;9.30;;;5.85;;
35693;SDS011;21812;55.536;37.664;2023-09-18T13:25:20;10.75;;;6.18;;
35693;SDS011;21812;55.536;37.664;2023-09-18T13:27:47;11.25;;;6.25;;
35693;SDS011;21812;55.536;37.664;2023-09-18T13:30:14;10.95;;;6.25;;
35693;SDS011;21812;55.536;37.664;2023-09-18T13:32:43;16.98;;;6.05;;
35693;SDS011;21812;55.536;37.664;2023-09-18T13:35:10;11.40;;;6.25;;
35693;SDS011;21812;55.536;37.664;2023-09-18T13:37:39;10.63;;;5.47;;
35693;SDS011;21812;55.536;37.664;2023-09-18T13:40:05;9.32;;;5.25;;
35693;SDS011;21812;55.536;37.664;2023-09-18T13:42:34;7.70;;;5.40;;
35693;SDS011;21812;55.536;37.664;2023-09-18T13:45:06;10.15;;;6.63;;
35693;SDS011;21812;55.536;37.664;2023-09-18T13:47:33;9.27;;;5.57;;
35693;SDS011;21812;55.536;37.664;2023-09-18T13:50:00;11.57;;;5.63;;
35693;SDS011;21812;55.536;37.664;2023-09-18T13:52:27;10.10;;;5.13;;
35693;SDS011;21812;55.536;37.664;2023-09-18T13:54:53;9.95;;;6.43;;
35693;SDS011;21812;55.536;37.664;2023-09-18T13:57:19;12.52;;;6.93;;
35693;SDS011;21812;55.536;37.664;2023-09-18T13:59:45;11.10;;;7.28;;
35693;SDS011;21812;55.536;37.664;2023-09-18T14:02:11;11.50;;;7.65;;
35693;SDS011;21812;55.536;37.664;2023-09-18T14:04:37;13.80;;;6.40;;
35693;SDS011;21812;55.536;37.664;2023-09-18T14:07:03;10.40;;;6.00;;
35693;SDS011;21812;55.536;37.664;2023-09-18T14:09:29;10.73;;;5.07;;
35693;SDS011;21812;55.536;37.664;2023-09-18T14:11:55;9.00;;;5.03;;
35693;SDS011;21812;55.536;37.664;2023-09-18T14:14:24;6.50;;;4.45;;
35693;SDS011;21812;55.536;37.664;2023-09-18T14:16:50;8.10;;;4.85;;
35693;SDS011;21812;55.536;37.664;2023-09-18T14:19:16;8.02;;;5.53;;
35693;SDS011;21812;55.536;37.664;2023-09-18T14:21:42;10.10;;;5.70;;
35693;SDS011;21812;55.536;37.664;2023-09-18T14:24:08;7.32;;;5.28;;
35693;SDS011;21812;55.536;37.664;2023-09-18T14:26:35;9.68;;;5.15;;
35693;SDS011;21812;55.536;37.664;2023-09-18T14:29:08;8.90;;;5.13;;
35693;SDS011;21812;55.536;37.664;2023-09-18T14:31:38;10.63;;;5.97;;
35693;SDS011;21812;55.536;37.664;2023-09-18T14:34:04;8.25;;;5.57;;
35693;SDS011;21812;55.536;37.664;2023-09-18T14:36:33;6.38;;;4.90;;
35693;SDS011;21812;55.536;37.664;2023-09-18T14:39:01;7.88;;;4.07;;
35693;SDS011;21812;55.536;37.664;2023-09-18T14:41:27;9.93;;;4.57;;
35693;SDS011;21812;55.536;37.664;2023-09-18T14:43:53;6.82;;;4.43;;
35693;SDS011;21812;55.536;37.664;2023-09-18T14:46:19;11.32;;;5.30;;
35693;SDS011;21812;55.536;37.664;2023-09-18T14:48:45;8.45;;;4.68;;
35693;SDS011;21812;55.536;37.664;2023-09-18T14:51:11;10.30;;;5.38;;
35693;SDS011;21812;55.536;37.664;2023-09-18T14:53:37;12.75;;;4.47;;
35693;SDS011;21812;55.536;37.664;2023-09-18T14:56:03;10.00;;;6.32;;
35693;SDS011;21812;55.536;37.664;2023-09-18T14:58:39;12.35;;;6.53;;
35693;SDS011;21812;55.536;37.664;2023-09-18T15:01:05;11.18;;;6.65;;
35693;SDS011;21812;55.536;37.664;2023-09-18T15:03:32;18.73;;;10.70;;
35693;SDS011;21812;55.536;37.664;2023-09-18T15:05:57;14.05;;;9.43;;
35693;SDS011;21812;55.536;37.664;2023-09-18T15:08:23;9.82;;;5.57;;
35693;SDS011;21812;55.536;37.664;2023-09-18T15:10:48;8.25;;;5.35;;
35693;SDS011;21812;55.536;37.664;2023-09-18T15:13:14;8.88;;;7.10;;
35693;SDS011;21812;55.536;37.664;2023-09-18T15:15:40;7.75;;;5.88;;
35693;SDS011;21812;55.536;37.664;2023-09-18T15:18:06;14.30;;;10.93;;
35693;SDS011;21812;55.536;37.664;2023-09-18T15:20:33;22.23;;;13.73;;
35693;SDS011;21812;55.536;37.664;2023-09-18T15:23:00;15.20;;;6.38;;
35693;SDS011;21812;55.536;37.664;2023-09-18T15:25:26;10.18;;;6.25;;
35693;SDS011;21812;55.536;37.664;2023-09-18T15:27:52;12.73;;;5.03;;
35693;SDS011;21812;55.536;37.664;2023-09-18T15:30:17;11.57;;;5.47;;
35693;SDS011;21812;55.536;37.664;2023-09-18T15:32:52;7.70;;;4.97;;
35693;SDS011;21812;55.536;37.664;2023-09-18T15:35:21;8.55;;;5.75;;
35693;SDS011;21812;55.536;37.664;2023-09-18T15:37:50;11.18;;;6.75;;
35693;SDS011;21812;55.536;37.664;2023-09-18T15:40:18;8.50;;;6.53;;
35693;SDS011;21812;55.536;37.664;2023-09-18T15:42:46;12.00;;;4.47;;
35693;SDS011;21812;55.536;37.664;2023-09-18T15:45:13;9.63;;;7.78;;
35693;SDS011;21812;55.536;37.664;2023-09-18T15:47:38;11.70;;;5.70;;
35693;SDS011;21812;55.536;37.664;2023-09-18T15:50:05;8.63;;;4.35;;
35693;SDS011;21812;55.536;37.664;2023-09-18T15:52:31;10.57;;;4.88;;
35693;SDS011;21812;55.536;37.664;2023-09-18T15:54:58;10.82;;;5.60;;
35693;SDS011;21812;55.536;37.664;2023-09-18T15:57:25;8.98;;;5.78;;
35693;SDS011;21812;55.536;37.664;2023-09-18T15:59:52;12.98;;;6.28;;
35693;SDS011;21812;55.536;37.664;2023-09-18T16:02:18;12.88;;;5.93;;
35693;SDS011;21812;55.536;37.664;2023-09-18T16:04:44;8.57;;;5.60;;
35693;SDS011;21812;55.536;37.664;2023-09-18T16:07:10;6.97;;;5.38;;
35693;SDS011;21812;55.536;37.664;2023-09-18T16:09:38;7.05;;;5.43;;
35693;SDS011;21812;55.536;37.664;2023-09-18T16:12:04;8.43;;;5.32;;
35693;SDS011;21812;55.536;37.664;2023-09-18T16:14:32;15.57;;;7.00;;
35693;SDS011;21812;55.536;37.664;2023-09-18T16:16:58;10.43;;;6.93;;
35693;SDS011;21812;55.536;37.664;2023-09-18T16:19:32;9.38;;;6.80;;
35693;SDS011;21812;55.536;37.664;2023-09-18T16:21:59;17.30;;;6.43;;
35693;SDS011;21812;55.536;37.664;2023-09-18T16:24:25;13.35;;;6.65;;
35693;SDS011;21812;55.536;37.664;2023-09-18T16:26:52;18.13;;;7.72;;
35693;SDS011;21812;55.536;37.664;2023-09-18T16:29:23;16.77;;;8.80;;
35693;SDS011;21812;55.536;37.664;2023-09-18T16:31:48;11.20;;;7.53;;
35693;SDS011;21812;55.536;37.664;2023-09-18T16:34:14;14.48;;;8.65;;
35693;SDS011;21812;55.536;37.664;2023-09-18T16:36:40;15.15;;;9.65;;
35693;SDS011;21812;55.536;37.664;2023-09-18T16:39:06;12.40;;;9.10;;
35693;SDS011;21812;55.536;37.664;2023-09-18T16:41:32;13.85;;;7.47;;
35693;SDS011;21812;55.536;37.664;2023-09-18T16:43:57;9.48;;;6.53;;
35693;SDS011;21812;55.536;37.664;2023-09-18T16:46:23;16.25;;;10.48;;
35693;SDS011;21812;55.536;37.664;2023-09-18T16:48:49;15.02;;;9.13;;
35693;SDS011;21812;55.536;37.664;2023-09-18T16:51:15;19.75;;;11.35;;
35693;SDS011;21812;55.536;37.664;2023-09-18T16:53:41;15.52;;;10.48;;
35693;SDS011;21812;55.536;37.664;2023-09-18T16:56:06;15.57;;;10.70;;
35693;SDS011;21812;55.536;37.664;2023-09-18T16:58:32;18.35;;;10.27;;
35693;SDS011;21812;55.536;37.664;2023-09-18T17:00:57;14.13;;;10.35;;
35693;SDS011;21812;55.536;37.664;2023-09-18T17:03:23;18.48;;;9.60;;
35693;SDS011;21812;55.536;37.664;2023-09-18T17:05:49;14.27;;;10.00;;
35693;SDS011;21812;55.536;37.664;2023-09-18T17:08:15;16.75;;;10.57;;
35693;SDS011;21812;55.536;37.664;2023-09-18T17:10:40;13.20;;;9.95;;
35693;SDS011;21812;55.536;37.664;2023-09-18T17:13:08;16.42;;;11.13;;
35693;SDS011;21812;55.536;37.664;2023-09-18T17:15:35;19.23;;;10.57;;
35693;SDS011;21812;55.536;37.664;2023-09-18T17:18:01;21.50;;;10.68;;
35693;SDS011;21812;55.536;37.664;2023-09-18T17:20:29;17.38;;;9.55;;
35693;SDS011;21812;55.536;37.664;2023-09-18T17:22:58;14.98;;;9.85;;
35693;SDS011;21812;55.536;37.664;2023-09-18T17:25:24;14.73;;;9.38;;
35693;SDS011;21812;55.536;37.664;2023-09-18T17:27:51;14.25;;;8.40;;
35693;SDS011;21812;55.536;37.664;2023-09-18T17:30:16;13.80;;;9.52;;
35693;SDS011;21812;55.536;37.664;2023-09-18T17:32:42;14.45;;;10.27;;
35693;SDS011;21812;55.536;37.664;2023-09-18T17:35:08;14.93;;;10.15;;
35693;SDS011;21812;55.536;37.664;2023-09-18T17:37:34;19.00;;;9.50;;